sensor_id;sensor_type;location;lat;lon;timestamp;P1;durP1;ratioP1;P2;durP2;ratioP2
31676;SDS011;18385;51.572;6.578;2022-10-16T00:01:23;5.57;;;1.73;;
31676;SDS011;18385;51.572;6.578;2022-10-16T00:03:51;2.92;;;1.38;;
31676;SDS011;18385;51.572;6.578;2022-10-16T00:06:18;5.38;;;1.23;;
31676;SDS011;18385;51.572;6.578;2022-10-16T00:08:45;4.50;;;1.33;;
31676;SDS011;18385;51.572;6.578;2022-10-16T00:11:12;3.38;;;1.10;;
31676;SDS011;18385;51.572;6.578;2022-10-16T00:14:00;3.17;;;1.38;;
31676;SDS011;18385;51.572;6.578;2022-10-16T00:16:27;4.63;;;1.55;;
31676;SDS011;18385;51.572;6.578;2022-10-16T00:18:53;2.90;;;1.30;;
31676;SDS011;18385;51.572;6.578;2022-10-16T00:21:21;6.20;;;1.70;;
31676;SDS011;18385;51.572;6.578;2022-10-16T00:24:08;3.78;;;1.33;;
31676;SDS011;18385;51.572;6.578;2022-10-16T00:26:35;6.35;;;1.40;;
31676;SDS011;18385;51.572;6.578;2022-10-16T00:29:01;4.15;;;1.42;;
31676;SDS011;18385;51.572;6.578;2022-10-16T00:31:28;5.05;;;1.85;;
31676;SDS011;18385;51.572;6.578;2022-10-16T00:33:54;5.72;;;1.50;;
31676;SDS011;18385;51.572;6.578;2022-10-16T00:36:22;5.13;;;1.17;;
31676;SDS011;18385;51.572;6.578;2022-10-16T00:38:50;4.70;;;1.40;;
31676;SDS011;18385;51.572;6.578;2022-10-16T00:41:20;5.10;;;1.33;;
31676;SDS011;18385;51.572;6.578;2022-10-16T00:43:51;2.45;;;1.17;;
31676;SDS011;18385;51.572;6.578;2022-10-16T00:46:22;3.63;;;1.02;;
31676;SDS011;18385;51.572;6.578;2022-10-16T00:49:02;3.22;;;1.20;;
31676;SDS011;18385;51.572;6.578;2022-10-16T00:51:47;7.68;;;1.20;;
31676;SDS011;18385;51.572;6.578;2022-10-16T00:54:16;3.63;;;1.00;;
31676;SDS011;18385;51.572;6.578;2022-10-16T00:56:45;6.53;;;1.50;;
31676;SDS011;18385;51.572;6.578;2022-10-16T00:59:16;3.42;;;1.20;;
31676;SDS011;18385;51.572;6.578;2022-10-16T01:01:45;6.53;;;1.10;;
31676;SDS011;18385;51.572;6.578;2022-10-16T01:04:11;3.47;;;0.95;;
31676;SDS011;18385;51.572;6.578;2022-10-16T01:06:45;2.30;;;1.27;;
31676;SDS011;18385;51.572;6.578;2022-10-16T01:09:35;4.25;;;1.05;;
31676;SDS011;18385;51.572;6.578;2022-10-16T01:17:11;3.42;;;1.00;;
31676;SDS011;18385;51.572;6.578;2022-10-16T01:19:51;2.45;;;0.98;;
31676;SDS011;18385;51.572;6.578;2022-10-16T01:29:16;2.72;;;1.05;;
31676;SDS011;18385;51.572;6.578;2022-10-16T01:31:17;4.82;;;1.13;;
31676;SDS011;18385;51.572;6.578;2022-10-16T01:33:48;4.88;;;1.30;;
31676;SDS011;18385;51.572;6.578;2022-10-16T01:36:21;4.07;;;0.90;;
31676;SDS011;18385;51.572;6.578;2022-10-16T01:38:52;2.75;;;0.90;;
31676;SDS011;18385;51.572;6.578;2022-10-16T01:41:23;3.58;;;1.20;;
31676;SDS011;18385;51.572;6.578;2022-10-16T01:43:54;3.65;;;1.80;;
31676;SDS011;18385;51.572;6.578;2022-10-16T01:46:26;2.15;;;0.93;;
31676;SDS011;18385;51.572;6.578;2022-10-16T01:48:55;5.07;;;1.27;;
31676;SDS011;18385;51.572;6.578;2022-10-16T01:51:21;6.07;;;1.70;;
31676;SDS011;18385;51.572;6.578;2022-10-16T01:53:49;5.93;;;2.22;;
31676;SDS011;18385;51.572;6.578;2022-10-16T01:56:19;7.63;;;2.88;;
31676;SDS011;18385;51.572;6.578;2022-10-16T01:59:06;3.60;;;1.30;;
31676;SDS011;18385;51.572;6.578;2022-10-16T02:01:36;7.18;;;1.40;;
31676;SDS011;18385;51.572;6.578;2022-10-16T02:04:09;2.23;;;0.93;;
31676;SDS011;18385;51.572;6.578;2022-10-16T02:06:42;3.10;;;1.05;;
31676;SDS011;18385;51.572;6.578;2022-10-16T02:09:08;3.65;;;1.48;;
31676;SDS011;18385;51.572;6.578;2022-10-16T02:11:34;3.25;;;1.08;;
31676;SDS011;18385;51.572;6.578;2022-10-16T02:14:06;4.28;;;1.50;;
31676;SDS011;18385;51.572;6.578;2022-10-16T02:16:37;6.07;;;1.85;;
31676;SDS011;18385;51.572;6.578;2022-10-16T02:19:05;7.45;;;1.75;;
31676;SDS011;18385;51.572;6.578;2022-10-16T02:21:38;4.55;;;1.80;;
31676;SDS011;18385;51.572;6.578;2022-10-16T02:29:36;3.63;;;1.20;;
31676;SDS011;18385;51.572;6.578;2022-10-16T02:32:09;4.50;;;1.38;;
31676;SDS011;18385;51.572;6.578;2022-10-16T02:34:38;4.55;;;1.13;;
31676;SDS011;18385;51.572;6.578;2022-10-16T02:37:05;1.92;;;0.80;;
31676;SDS011;18385;51.572;6.578;2022-10-16T02:39:32;3.05;;;0.82;;
31676;SDS011;18385;51.572;6.578;2022-10-16T02:41:59;3.70;;;0.80;;
31676;SDS011;18385;51.572;6.578;2022-10-16T02:44:25;3.45;;;1.20;;
31676;SDS011;18385;51.572;6.578;2022-10-16T02:46:51;2.63;;;0.80;;
31676;SDS011;18385;51.572;6.578;2022-10-16T02:49:16;3.17;;;0.93;;
31676;SDS011;18385;51.572;6.578;2022-10-16T02:51:43;4.88;;;1.60;;
31676;SDS011;18385;51.572;6.578;2022-10-16T02:54:08;5.15;;;1.55;;
31676;SDS011;18385;51.572;6.578;2022-10-16T02:56:34;6.47;;;1.60;;
31676;SDS011;18385;51.572;6.578;2022-10-16T02:59:00;5.20;;;1.35;;
31676;SDS011;18385;51.572;6.578;2022-10-16T03:01:25;3.30;;;1.27;;
31676;SDS011;18385;51.572;6.578;2022-10-16T03:03:51;7.15;;;1.90;;
31676;SDS011;18385;51.572;6.578;2022-10-16T03:06:16;4.30;;;1.75;;
31676;SDS011;18385;51.572;6.578;2022-10-16T03:08:43;5.18;;;1.90;;
31676;SDS011;18385;51.572;6.578;2022-10-16T03:11:08;7.32;;;2.65;;
31676;SDS011;18385;51.572;6.578;2022-10-16T03:13:34;3.85;;;2.17;;
31676;SDS011;18385;51.572;6.578;2022-10-16T03:16:00;5.10;;;1.88;;
31676;SDS011;18385;51.572;6.578;2022-10-16T03:18:25;4.82;;;1.88;;
31676;SDS011;18385;51.572;6.578;2022-10-16T03:20:51;4.95;;;1.52;;
31676;SDS011;18385;51.572;6.578;2022-10-16T03:23:16;4.65;;;1.70;;
31676;SDS011;18385;51.572;6.578;2022-10-16T03:25:42;5.57;;;2.25;;
31676;SDS011;18385;51.572;6.578;2022-10-16T03:28:08;4.47;;;1.48;;
31676;SDS011;18385;51.572;6.578;2022-10-16T03:30:34;3.97;;;1.30;;
31676;SDS011;18385;51.572;6.578;2022-10-16T03:32:59;6.93;;;1.67;;
31676;SDS011;18385;51.572;6.578;2022-10-16T03:35:25;6.05;;;1.60;;
31676;SDS011;18385;51.572;6.578;2022-10-16T03:37:51;4.38;;;0.90;;
31676;SDS011;18385;51.572;6.578;2022-10-16T03:40:17;3.58;;;1.20;;
31676;SDS011;18385;51.572;6.578;2022-10-16T03:42:43;3.08;;;1.15;;
31676;SDS011;18385;51.572;6.578;2022-10-16T03:45:09;2.53;;;1.10;;
31676;SDS011;18385;51.572;6.578;2022-10-16T03:47:35;2.15;;;1.05;;
31676;SDS011;18385;51.572;6.578;2022-10-16T03:50:01;2.65;;;0.85;;
31676;SDS011;18385;51.572;6.578;2022-10-16T03:52:26;3.53;;;1.83;;
31676;SDS011;18385;51.572;6.578;2022-10-16T03:54:55;2.92;;;1.63;;
31676;SDS011;18385;51.572;6.578;2022-10-16T03:57:20;4.88;;;1.10;;
31676;SDS011;18385;51.572;6.578;2022-10-16T03:59:46;3.28;;;1.00;;
31676;SDS011;18385;51.572;6.578;2022-10-16T04:02:12;4.43;;;1.55;;
31676;SDS011;18385;51.572;6.578;2022-10-16T04:04:37;4.75;;;1.98;;
31676;SDS011;18385;51.572;6.578;2022-10-16T04:07:03;4.88;;;1.70;;
31676;SDS011;18385;51.572;6.578;2022-10-16T04:09:29;3.85;;;1.15;;
31676;SDS011;18385;51.572;6.578;2022-10-16T04:11:55;1.73;;;0.77;;
31676;SDS011;18385;51.572;6.578;2022-10-16T04:14:21;2.83;;;0.90;;
31676;SDS011;18385;51.572;6.578;2022-10-16T04:16:47;3.40;;;1.20;;
31676;SDS011;18385;51.572;6.578;2022-10-16T04:19:12;2.08;;;0.65;;
31676;SDS011;18385;51.572;6.578;2022-10-16T04:21:38;1.63;;;0.60;;
31676;SDS011;18385;51.572;6.578;2022-10-16T04:24:03;3.28;;;0.65;;
31676;SDS011;18385;51.572;6.578;2022-10-16T04:26:29;0.95;;;0.50;;
31676;SDS011;18385;51.572;6.578;2022-10-16T04:28:55;3.38;;;0.40;;
31676;SDS011;18385;51.572;6.578;2022-10-16T04:31:21;2.10;;;0.43;;
31676;SDS011;18385;51.572;6.578;2022-10-16T04:33:47;1.38;;;0.45;;
31676;SDS011;18385;51.572;6.578;2022-10-16T04:36:13;1.88;;;0.55;;
31676;SDS011;18385;51.572;6.578;2022-10-16T04:38:38;0.70;;;0.30;;
31676;SDS011;18385;51.572;6.578;2022-10-16T04:41:05;0.82;;;0.40;;
31676;SDS011;18385;51.572;6.578;2022-10-16T04:43:32;1.85;;;0.40;;
31676;SDS011;18385;51.572;6.578;2022-10-16T04:45:58;1.08;;;0.50;;
31676;SDS011;18385;51.572;6.578;2022-10-16T04:48:23;2.75;;;0.90;;
31676;SDS011;18385;51.572;6.578;2022-10-16T04:50:49;2.97;;;0.63;;
31676;SDS011;18385;51.572;6.578;2022-10-16T04:53:15;1.20;;;0.50;;
31676;SDS011;18385;51.572;6.578;2022-10-16T04:55:42;1.05;;;0.50;;
31676;SDS011;18385;51.572;6.578;2022-10-16T04:58:08;1.80;;;0.38;;
31676;SDS011;18385;51.572;6.578;2022-10-16T05:00:34;2.05;;;0.60;;
31676;SDS011;18385;51.572;6.578;2022-10-16T05:03:00;3.63;;;0.70;;
31676;SDS011;18385;51.572;6.578;2022-10-16T05:05:26;2.03;;;0.60;;
31676;SDS011;18385;51.572;6.578;2022-10-16T05:07:52;4.32;;;0.93;;
31676;SDS011;18385;51.572;6.578;2022-10-16T05:10:19;2.13;;;1.10;;
31676;SDS011;18385;51.572;6.578;2022-10-16T05:12:46;3.80;;;1.08;;
31676;SDS011;18385;51.572;6.578;2022-10-16T05:15:11;1.58;;;0.60;;
31676;SDS011;18385;51.572;6.578;2022-10-16T05:17:37;3.65;;;0.90;;
31676;SDS011;18385;51.572;6.578;2022-10-16T05:20:03;1.55;;;0.60;;
31676;SDS011;18385;51.572;6.578;2022-10-16T05:22:29;2.60;;;0.80;;
31676;SDS011;18385;51.572;6.578;2022-10-16T05:24:54;2.72;;;0.60;;
31676;SDS011;18385;51.572;6.578;2022-10-16T05:27:20;2.28;;;0.90;;
31676;SDS011;18385;51.572;6.578;2022-10-16T05:29:46;4.72;;;0.70;;
31676;SDS011;18385;51.572;6.578;2022-10-16T05:32:13;1.60;;;0.68;;
31676;SDS011;18385;51.572;6.578;2022-10-16T05:34:40;3.35;;;0.50;;
31676;SDS011;18385;51.572;6.578;2022-10-16T05:37:06;1.05;;;0.43;;
31676;SDS011;18385;51.572;6.578;2022-10-16T05:39:31;1.40;;;0.60;;
31676;SDS011;18385;51.572;6.578;2022-10-16T05:41:57;3.40;;;0.57;;
31676;SDS011;18385;51.572;6.578;2022-10-16T05:44:23;0.82;;;0.50;;
31676;SDS011;18385;51.572;6.578;2022-10-16T05:46:48;1.65;;;0.60;;
31676;SDS011;18385;51.572;6.578;2022-10-16T05:49:14;2.10;;;0.50;;
31676;SDS011;18385;51.572;6.578;2022-10-16T05:51:40;0.85;;;0.40;;
31676;SDS011;18385;51.572;6.578;2022-10-16T05:54:06;4.80;;;0.75;;
31676;SDS011;18385;51.572;6.578;2022-10-16T05:56:32;1.50;;;0.50;;
31676;SDS011;18385;51.572;6.578;2022-10-16T05:58:57;4.28;;;0.80;;
31676;SDS011;18385;51.572;6.578;2022-10-16T06:01:23;5.30;;;0.90;;
31676;SDS011;18385;51.572;6.578;2022-10-16T06:03:52;2.90;;;0.98;;
31676;SDS011;18385;51.572;6.578;2022-10-16T06:06:19;1.50;;;0.50;;
31676;SDS011;18385;51.572;6.578;2022-10-16T06:08:48;1.75;;;0.70;;
31676;SDS011;18385;51.572;6.578;2022-10-16T06:11:16;1.65;;;0.40;;
31676;SDS011;18385;51.572;6.578;2022-10-16T06:13:42;1.75;;;0.60;;
31676;SDS011;18385;51.572;6.578;2022-10-16T06:16:11;1.92;;;0.73;;
31676;SDS011;18385;51.572;6.578;2022-10-16T06:18:37;2.95;;;1.00;;
31676;SDS011;18385;51.572;6.578;2022-10-16T06:21:07;6.85;;;1.50;;
31676;SDS011;18385;51.572;6.578;2022-10-16T06:23:35;2.97;;;1.30;;
31676;SDS011;18385;51.572;6.578;2022-10-16T06:26:04;5.80;;;1.60;;
31676;SDS011;18385;51.572;6.578;2022-10-16T06:28:34;3.95;;;1.60;;
31676;SDS011;18385;51.572;6.578;2022-10-16T06:31:00;2.63;;;1.20;;
31676;SDS011;18385;51.572;6.578;2022-10-16T06:33:27;3.72;;;1.60;;
31676;SDS011;18385;51.572;6.578;2022-10-16T06:35:52;4.15;;;1.45;;
31676;SDS011;18385;51.572;6.578;2022-10-16T06:38:18;5.35;;;1.70;;
31676;SDS011;18385;51.572;6.578;2022-10-16T06:40:44;1.83;;;1.10;;
31676;SDS011;18385;51.572;6.578;2022-10-16T06:43:09;2.53;;;1.30;;
31676;SDS011;18385;51.572;6.578;2022-10-16T06:45:35;2.63;;;0.90;;
31676;SDS011;18385;51.572;6.578;2022-10-16T06:48:01;3.50;;;1.08;;
31676;SDS011;18385;51.572;6.578;2022-10-16T06:50:27;3.03;;;0.93;;
31676;SDS011;18385;51.572;6.578;2022-10-16T06:52:52;3.25;;;1.08;;
31676;SDS011;18385;51.572;6.578;2022-10-16T06:55:18;2.35;;;1.05;;
31676;SDS011;18385;51.572;6.578;2022-10-16T06:57:46;4.15;;;0.70;;
31676;SDS011;18385;51.572;6.578;2022-10-16T07:00:13;3.25;;;0.82;;
31676;SDS011;18385;51.572;6.578;2022-10-16T07:02:39;6.10;;;0.93;;
31676;SDS011;18385;51.572;6.578;2022-10-16T07:05:04;1.80;;;0.80;;
31676;SDS011;18385;51.572;6.578;2022-10-16T07:07:30;1.63;;;0.77;;
31676;SDS011;18385;51.572;6.578;2022-10-16T07:09:56;2.25;;;0.85;;
31676;SDS011;18385;51.572;6.578;2022-10-16T07:12:21;3.95;;;0.93;;
31676;SDS011;18385;51.572;6.578;2022-10-16T07:14:47;2.67;;;0.88;;
31676;SDS011;18385;51.572;6.578;2022-10-16T07:17:13;4.47;;;0.90;;
31676;SDS011;18385;51.572;6.578;2022-10-16T07:19:39;1.45;;;0.88;;
31676;SDS011;18385;51.572;6.578;2022-10-16T07:22:04;4.25;;;0.93;;
31676;SDS011;18385;51.572;6.578;2022-10-16T07:24:30;1.98;;;1.10;;
31676;SDS011;18385;51.572;6.578;2022-10-16T07:26:56;5.00;;;1.10;;
31676;SDS011;18385;51.572;6.578;2022-10-16T07:29:21;1.92;;;1.08;;
31676;SDS011;18385;51.572;6.578;2022-10-16T07:31:47;3.22;;;1.00;;
31676;SDS011;18385;51.572;6.578;2022-10-16T07:34:14;1.95;;;1.02;;
31676;SDS011;18385;51.572;6.578;2022-10-16T07:36:41;1.17;;;0.70;;
31676;SDS011;18385;51.572;6.578;2022-10-16T07:39:07;5.97;;;0.80;;
31676;SDS011;18385;51.572;6.578;2022-10-16T07:41:33;1.60;;;0.80;;
31676;SDS011;18385;51.572;6.578;2022-10-16T07:44:02;2.15;;;0.93;;
31676;SDS011;18385;51.572;6.578;2022-10-16T07:46:28;2.38;;;0.82;;
31676;SDS011;18385;51.572;6.578;2022-10-16T07:48:54;1.80;;;0.90;;
31676;SDS011;18385;51.572;6.578;2022-10-16T07:51:21;2.30;;;1.00;;
31676;SDS011;18385;51.572;6.578;2022-10-16T07:53:49;1.25;;;0.95;;
31676;SDS011;18385;51.572;6.578;2022-10-16T07:56:16;4.78;;;1.30;;
31676;SDS011;18385;51.572;6.578;2022-10-16T07:58:43;5.22;;;1.55;;
31676;SDS011;18385;51.572;6.578;2022-10-16T08:01:09;2.30;;;1.02;;
31676;SDS011;18385;51.572;6.578;2022-10-16T08:03:37;1.63;;;1.05;;
31676;SDS011;18385;51.572;6.578;2022-10-16T08:06:03;1.48;;;1.02;;
31676;SDS011;18385;51.572;6.578;2022-10-16T08:08:29;4.22;;;1.13;;
31676;SDS011;18385;51.572;6.578;2022-10-16T08:10:55;1.88;;;0.90;;
31676;SDS011;18385;51.572;6.578;2022-10-16T08:13:21;5.10;;;0.80;;
31676;SDS011;18385;51.572;6.578;2022-10-16T08:15:47;3.80;;;1.10;;
31676;SDS011;18385;51.572;6.578;2022-10-16T08:18:13;1.92;;;0.70;;
31676;SDS011;18385;51.572;6.578;2022-10-16T08:20:40;2.90;;;0.93;;
31676;SDS011;18385;51.572;6.578;2022-10-16T08:23:07;1.90;;;1.15;;
31676;SDS011;18385;51.572;6.578;2022-10-16T08:25:35;2.05;;;0.70;;
31676;SDS011;18385;51.572;6.578;2022-10-16T08:28:03;3.25;;;0.68;;
31676;SDS011;18385;51.572;6.578;2022-10-16T08:30:30;2.92;;;0.98;;
31676;SDS011;18385;51.572;6.578;2022-10-16T08:32:56;1.52;;;0.82;;
31676;SDS011;18385;51.572;6.578;2022-10-16T08:35:23;3.38;;;1.73;;
31676;SDS011;18385;51.572;6.578;2022-10-16T08:37:49;3.90;;;1.38;;
31676;SDS011;18385;51.572;6.578;2022-10-16T08:40:27;1.55;;;0.60;;
31676;SDS011;18385;51.572;6.578;2022-10-16T08:45:59;4.47;;;0.82;;
31676;SDS011;18385;51.572;6.578;2022-10-16T08:48:49;2.58;;;0.50;;
31676;SDS011;18385;51.572;6.578;2022-10-16T08:51:24;1.23;;;0.60;;
31676;SDS011;18385;51.572;6.578;2022-10-16T08:53:59;2.90;;;0.50;;
31676;SDS011;18385;51.572;6.578;2022-10-16T08:56:29;4.80;;;0.68;;
31676;SDS011;18385;51.572;6.578;2022-10-16T08:58:54;3.10;;;0.55;;
31676;SDS011;18385;51.572;6.578;2022-10-16T09:01:22;2.03;;;0.60;;
31676;SDS011;18385;51.572;6.578;2022-10-16T09:12:40;3.83;;;0.70;;
31676;SDS011;18385;51.572;6.578;2022-10-16T09:23:59;2.20;;;0.50;;
31676;SDS011;18385;51.572;6.578;2022-10-16T09:26:41;3.90;;;0.50;;
31676;SDS011;18385;51.572;6.578;2022-10-16T09:29:10;1.67;;;0.32;;
31676;SDS011;18385;51.572;6.578;2022-10-16T09:31:38;1.77;;;0.30;;
31676;SDS011;18385;51.572;6.578;2022-10-16T09:34:04;2.30;;;0.77;;
31676;SDS011;18385;51.572;6.578;2022-10-16T09:36:42;3.38;;;0.50;;
31676;SDS011;18385;51.572;6.578;2022-10-16T09:39:10;2.63;;;1.15;;
31676;SDS011;18385;51.572;6.578;2022-10-16T09:41:40;2.33;;;0.60;;
31676;SDS011;18385;51.572;6.578;2022-10-16T09:44:18;2.00;;;0.40;;
31676;SDS011;18385;51.572;6.578;2022-10-16T09:49:55;6.35;;;1.25;;
31676;SDS011;18385;51.572;6.578;2022-10-16T09:52:30;3.08;;;0.60;;
31676;SDS011;18385;51.572;6.578;2022-10-16T09:57:23;0.38;;;0.20;;
31676;SDS011;18385;51.572;6.578;2022-10-16T09:59:50;3.20;;;0.50;;
31676;SDS011;18385;51.572;6.578;2022-10-16T10:02:18;3.85;;;0.57;;
31676;SDS011;18385;51.572;6.578;2022-10-16T10:04:55;1.42;;;0.40;;
31676;SDS011;18385;51.572;6.578;2022-10-16T10:07:25;2.17;;;0.52;;
31676;SDS011;18385;51.572;6.578;2022-10-16T10:09:52;1.50;;;0.40;;
31676;SDS011;18385;51.572;6.578;2022-10-16T10:12:24;2.13;;;0.40;;
31676;SDS011;18385;51.572;6.578;2022-10-16T10:14:52;2.95;;;1.00;;
31676;SDS011;18385;51.572;6.578;2022-10-16T10:17:21;1.02;;;0.40;;
31676;SDS011;18385;51.572;6.578;2022-10-16T10:24:58;3.25;;;0.30;;
31676;SDS011;18385;51.572;6.578;2022-10-16T10:30:18;3.03;;;0.63;;
31676;SDS011;18385;51.572;6.578;2022-10-16T10:35:47;4.30;;;0.40;;
31676;SDS011;18385;51.572;6.578;2022-10-16T10:46:23;3.83;;;0.30;;
31676;SDS011;18385;51.572;6.578;2022-10-16T11:00:10;2.50;;;0.45;;
31676;SDS011;18385;51.572;6.578;2022-10-16T11:02:59;3.10;;;0.75;;
31676;SDS011;18385;51.572;6.578;2022-10-16T11:05:44;6.53;;;0.77;;
31676;SDS011;18385;51.572;6.578;2022-10-16T11:08:19;4.28;;;0.50;;
31676;SDS011;18385;51.572;6.578;2022-10-16T11:10:56;3.17;;;0.30;;
31676;SDS011;18385;51.572;6.578;2022-10-16T11:13:32;1.33;;;0.40;;
31676;SDS011;18385;51.572;6.578;2022-10-16T11:22:13;2.70;;;0.30;;
31676;SDS011;18385;51.572;6.578;2022-10-16T11:27:37;2.45;;;0.30;;
31676;SDS011;18385;51.572;6.578;2022-10-16T11:30:12;1.95;;;0.25;;
31676;SDS011;18385;51.572;6.578;2022-10-16T11:32:47;4.03;;;0.77;;
31676;SDS011;18385;51.572;6.578;2022-10-16T11:35:19;1.55;;;0.30;;
31676;SDS011;18385;51.572;6.578;2022-10-16T11:37:49;2.55;;;0.35;;
31676;SDS011;18385;51.572;6.578;2022-10-16T11:40:28;2.67;;;0.93;;
31676;SDS011;18385;51.572;6.578;2022-10-16T11:43:04;3.80;;;0.20;;
31676;SDS011;18385;51.572;6.578;2022-10-16T11:45:46;2.10;;;0.20;;
31676;SDS011;18385;51.572;6.578;2022-10-16T11:48:30;1.70;;;0.47;;
31676;SDS011;18385;51.572;6.578;2022-10-16T11:53:51;3.30;;;0.40;;
31676;SDS011;18385;51.572;6.578;2022-10-16T11:56:40;2.33;;;0.40;;
31676;SDS011;18385;51.572;6.578;2022-10-16T12:04:51;4.25;;;0.43;;
31676;SDS011;18385;51.572;6.578;2022-10-16T12:07:27;0.82;;;0.47;;
31676;SDS011;18385;51.572;6.578;2022-10-16T12:10:18;1.55;;;0.20;;
31676;SDS011;18385;51.572;6.578;2022-10-16T12:12:45;2.40;;;0.22;;
31676;SDS011;18385;51.572;6.578;2022-10-16T12:15:19;2.95;;;0.60;;
31676;SDS011;18385;51.572;6.578;2022-10-16T12:17:45;3.30;;;0.20;;
31676;SDS011;18385;51.572;6.578;2022-10-16T12:22:37;2.80;;;0.50;;
31676;SDS011;18385;51.572;6.578;2022-10-16T12:27:59;2.78;;;0.30;;
31676;SDS011;18385;51.572;6.578;2022-10-16T12:30:42;1.10;;;0.15;;
31676;SDS011;18385;51.572;6.578;2022-10-16T12:33:21;2.55;;;0.20;;
31676;SDS011;18385;51.572;6.578;2022-10-16T12:35:51;2.00;;;0.20;;
31676;SDS011;18385;51.572;6.578;2022-10-16T12:41:03;4.25;;;0.93;;
31676;SDS011;18385;51.572;6.578;2022-10-16T12:48:36;3.13;;;0.20;;
31676;SDS011;18385;51.572;6.578;2022-10-16T12:59:42;1.05;;;0.20;;
31676;SDS011;18385;51.572;6.578;2022-10-16T13:10:40;2.55;;;0.30;;
31676;SDS011;18385;51.572;6.578;2022-10-16T13:21:59;1.30;;;0.10;;
31676;SDS011;18385;51.572;6.578;2022-10-16T13:24:55;0.55;;;0.10;;
31676;SDS011;18385;51.572;6.578;2022-10-16T13:27:55;0.70;;;0.20;;
31676;SDS011;18385;51.572;6.578;2022-10-16T13:30:30;3.10;;;0.40;;
31676;SDS011;18385;51.572;6.578;2022-10-16T13:33:12;1.00;;;0.28;;
31676;SDS011;18385;51.572;6.578;2022-10-16T13:35:49;2.58;;;0.50;;
31676;SDS011;18385;51.572;6.578;2022-10-16T13:38:18;2.88;;;0.22;;
31676;SDS011;18385;51.572;6.578;2022-10-16T13:43:34;4.60;;;0.30;;
31676;SDS011;18385;51.572;6.578;2022-10-16T13:46:07;0.60;;;0.20;;
31676;SDS011;18385;51.572;6.578;2022-10-16T13:48:40;3.40;;;0.20;;
31676;SDS011;18385;51.572;6.578;2022-10-16T13:51:14;0.63;;;0.10;;
31676;SDS011;18385;51.572;6.578;2022-10-16T13:53:41;2.78;;;1.17;;
31676;SDS011;18385;51.572;6.578;2022-10-16T13:56:11;2.97;;;0.40;;
31676;SDS011;18385;51.572;6.578;2022-10-16T13:58:39;1.13;;;0.28;;
31676;SDS011;18385;51.572;6.578;2022-10-16T14:01:19;2.60;;;0.10;;
31676;SDS011;18385;51.572;6.578;2022-10-16T14:03:48;1.75;;;0.20;;
31676;SDS011;18385;51.572;6.578;2022-10-16T14:06:19;0.75;;;0.10;;
31676;SDS011;18385;51.572;6.578;2022-10-16T14:08:50;0.90;;;0.20;;
31676;SDS011;18385;51.572;6.578;2022-10-16T14:11:24;0.73;;;0.15;;
31676;SDS011;18385;51.572;6.578;2022-10-16T14:13:50;0.70;;;0.28;;
31676;SDS011;18385;51.572;6.578;2022-10-16T14:16:21;1.77;;;0.22;;
31676;SDS011;18385;51.572;6.578;2022-10-16T14:19:02;1.63;;;0.30;;
31676;SDS011;18385;51.572;6.578;2022-10-16T14:21:31;1.77;;;0.60;;
31676;SDS011;18385;51.572;6.578;2022-10-16T14:23:58;1.70;;;0.43;;
31676;SDS011;18385;51.572;6.578;2022-10-16T14:26:27;1.52;;;0.30;;
31676;SDS011;18385;51.572;6.578;2022-10-16T14:29:11;2.45;;;0.20;;
31676;SDS011;18385;51.572;6.578;2022-10-16T14:31:42;4.65;;;0.45;;
31676;SDS011;18385;51.572;6.578;2022-10-16T14:34:22;0.95;;;0.20;;
31676;SDS011;18385;51.572;6.578;2022-10-16T14:36:49;1.80;;;0.30;;
31676;SDS011;18385;51.572;6.578;2022-10-16T14:39:22;1.08;;;0.20;;
31676;SDS011;18385;51.572;6.578;2022-10-16T14:41:54;1.25;;;0.15;;
31676;SDS011;18385;51.572;6.578;2022-10-16T14:44:23;1.20;;;0.60;;
31676;SDS011;18385;51.572;6.578;2022-10-16T14:46:53;1.45;;;0.20;;
31676;SDS011;18385;51.572;6.578;2022-10-16T14:49:19;1.20;;;0.30;;
31676;SDS011;18385;51.572;6.578;2022-10-16T14:51:46;2.30;;;0.40;;
31676;SDS011;18385;51.572;6.578;2022-10-16T14:54:13;1.08;;;0.13;;
31676;SDS011;18385;51.572;6.578;2022-10-16T14:56:50;1.75;;;0.20;;
31676;SDS011;18385;51.572;6.578;2022-10-16T15:04:56;3.80;;;0.43;;
31676;SDS011;18385;51.572;6.578;2022-10-16T15:07:23;7.43;;;0.88;;
31676;SDS011;18385;51.572;6.578;2022-10-16T15:09:50;4.35;;;0.90;;
31676;SDS011;18385;51.572;6.578;2022-10-16T15:12:16;1.58;;;0.35;;
31676;SDS011;18385;51.572;6.578;2022-10-16T15:14:42;1.83;;;0.70;;
31676;SDS011;18385;51.572;6.578;2022-10-16T15:17:09;2.20;;;0.30;;
31676;SDS011;18385;51.572;6.578;2022-10-16T15:19:35;1.92;;;0.40;;
31676;SDS011;18385;51.572;6.578;2022-10-16T15:22:01;4.15;;;0.50;;
31676;SDS011;18385;51.572;6.578;2022-10-16T15:24:26;2.17;;;0.30;;
31676;SDS011;18385;51.572;6.578;2022-10-16T15:26:52;5.13;;;0.50;;
31676;SDS011;18385;51.572;6.578;2022-10-16T15:29:17;3.03;;;0.30;;
31676;SDS011;18385;51.572;6.578;2022-10-16T15:31:43;2.03;;;0.50;;
31676;SDS011;18385;51.572;6.578;2022-10-16T15:34:12;1.43;;;0.53;;
31676;SDS011;18385;51.572;6.578;2022-10-16T15:36:38;3.88;;;0.70;;
31676;SDS011;18385;51.572;6.578;2022-10-16T15:39:05;4.43;;;0.98;;
31676;SDS011;18385;51.572;6.578;2022-10-16T15:41:36;4.28;;;0.70;;
31676;SDS011;18385;51.572;6.578;2022-10-16T15:44:02;3.10;;;0.40;;
31676;SDS011;18385;51.572;6.578;2022-10-16T15:46:31;4.07;;;0.57;;
31676;SDS011;18385;51.572;6.578;2022-10-16T15:48:59;3.05;;;1.10;;
31676;SDS011;18385;51.572;6.578;2022-10-16T15:51:25;1.67;;;0.30;;
31676;SDS011;18385;51.572;6.578;2022-10-16T15:53:58;1.92;;;0.80;;
31676;SDS011;18385;51.572;6.578;2022-10-16T15:56:24;2.10;;;0.60;;
31676;SDS011;18385;51.572;6.578;2022-10-16T15:58:51;3.53;;;0.70;;
31676;SDS011;18385;51.572;6.578;2022-10-16T16:01:17;3.17;;;1.30;;
31676;SDS011;18385;51.572;6.578;2022-10-16T16:03:43;8.93;;;2.40;;
31676;SDS011;18385;51.572;6.578;2022-10-16T16:06:12;6.30;;;1.20;;
31676;SDS011;18385;51.572;6.578;2022-10-16T16:08:40;1.98;;;0.80;;
31676;SDS011;18385;51.572;6.578;2022-10-16T16:11:09;2.28;;;0.40;;
31676;SDS011;18385;51.572;6.578;2022-10-16T16:13:37;3.85;;;0.82;;
31676;SDS011;18385;51.572;6.578;2022-10-16T16:16:07;0.70;;;0.30;;
31676;SDS011;18385;51.572;6.578;2022-10-16T16:18:33;2.58;;;0.45;;
31676;SDS011;18385;51.572;6.578;2022-10-16T16:20:59;3.58;;;0.35;;
31676;SDS011;18385;51.572;6.578;2022-10-16T16:23:25;4.30;;;0.40;;
31676;SDS011;18385;51.572;6.578;2022-10-16T16:28:52;0.90;;;0.50;;
31676;SDS011;18385;51.572;6.578;2022-10-16T16:31:19;0.60;;;0.20;;
31676;SDS011;18385;51.572;6.578;2022-10-16T16:33:46;5.60;;;0.95;;
31676;SDS011;18385;51.572;6.578;2022-10-16T16:36:11;2.90;;;0.73;;
31676;SDS011;18385;51.572;6.578;2022-10-16T16:38:37;2.67;;;1.20;;
31676;SDS011;18385;51.572;6.578;2022-10-16T16:41:16;3.97;;;1.65;;
31676;SDS011;18385;51.572;6.578;2022-10-16T16:43:44;2.80;;;1.60;;
31676;SDS011;18385;51.572;6.578;2022-10-16T16:46:10;2.70;;;1.70;;
31676;SDS011;18385;51.572;6.578;2022-10-16T16:48:36;3.13;;;1.52;;
31676;SDS011;18385;51.572;6.578;2022-10-16T16:51:06;3.50;;;0.98;;
31676;SDS011;18385;51.572;6.578;2022-10-16T16:53:34;4.43;;;0.93;;
31676;SDS011;18385;51.572;6.578;2022-10-16T16:56:03;2.72;;;1.13;;
31676;SDS011;18385;51.572;6.578;2022-10-16T16:58:31;3.20;;;1.50;;
31676;SDS011;18385;51.572;6.578;2022-10-16T17:00:57;14.32;;;7.13;;
31676;SDS011;18385;51.572;6.578;2022-10-16T17:03:33;22.33;;;9.23;;
31676;SDS011;18385;51.572;6.578;2022-10-16T17:06:01;13.60;;;6.90;;
31676;SDS011;18385;51.572;6.578;2022-10-16T17:08:29;11.57;;;6.03;;
31676;SDS011;18385;51.572;6.578;2022-10-16T17:10:55;9.77;;;5.43;;
31676;SDS011;18385;51.572;6.578;2022-10-16T17:13:22;12.77;;;6.18;;
31676;SDS011;18385;51.572;6.578;2022-10-16T17:15:49;8.98;;;3.88;;
31676;SDS011;18385;51.572;6.578;2022-10-16T17:18:16;6.57;;;2.55;;
31676;SDS011;18385;51.572;6.578;2022-10-16T17:20:42;5.45;;;1.40;;